Terminal Aerodrome Forecast
Issued by NWS

Home | Current Version | Previous Version | Text Only | Print | Product List | Glossary On
Versions: 1 2 3 4 5 6 7 8 9 10 11 12 13 14
784
FTUS46 KMTR 241135
TAFOAK
TAF
KOAK 241135Z 2412/2518 10005KT P6SM FEW200
     FM241800 26007KT P6SM FEW030 FEW050
     FM242100 28015KT P6SM SCT030
      TEMPO 2423/2502 BKN030
     FM250300 29012KT P6SM SCT030
     FM250800 32008KT P6SM FEW025
     FM251100 VRB04KT P6SM SKC=

USA.gov is the U.S. government's official web portal to all federal, state and local government web resources and services.